METAR des aéroports

 

LFBA - AGEN (Lot-et-Garonne)
Mise à jour: 23/02/2018 07:00
Partiellement nuageux
Partiellement nuageux
 Vent W
Vent: W 6 km/h
Température: 1°C
Point de Rosée: -2°C
Humidité: 81%
Barometre: 1010 hPa
Nuage: Partiellement nuageux
Visibilité: 9 km
2018/02/23 06:00 LFBA 230600Z AUTO 28003KT 9000 NSC 01/M02 Q1010 NOSIG
LFKJ - AJACCIO (Corse-du-Sud)
Mise à jour: 23/02/2018 07:00
Quelques nuages
Quelques nuages
 Vent NE
Vent: NE 9 km/h
Température: 5°C
Température au Vent: 3°C
Point de Rosée: 3°C
Humidité: 87%
Barometre: 1000 hPa
Nuage: Quelques nuages
Visibilité: 10 km
2018/02/23 06:00 LFKJ 230600Z AUTO 04005KT 9999 FEW027 05/03 Q1000 NOSIG
 
LFJR - ANGERS (Maine-et-Loire)
Mise à jour: 23/02/2018 07:00
Partiellement nuageux
Partiellement nuageux
 Vent NNE
Vent: NNE 9 km/h
Température: -2°C
Température au Vent: -6°C
Point de Rosée: -5°C
Humidité: 80%
Barometre: 1015 hPa
Nuage: Partiellement nuageux
Visibilité: 9 km
2018/02/23 06:00 LFJR 230600Z AUTO 02005KT 9000 NSC M02/M05 Q1015 NOSIG
LFLP - ANNECY (Haute-Savoie)
Mise à jour: 23/02/2018 07:00
Couvert
Couvert
 Vent NNW
Vent: NNW 15 km/h
Température: -1°C
Température au Vent: -6°C
Point de Rosée: -5°C
Humidité: 75%
Barometre: 1007 hPa
Nuage: Couvert
Visibilité: 8 km
2018/02/23 06:00 LFLP 230600Z AUTO 34008KT 8000 OVC026 M01/M05 Q1007 NOSIG
 
LFMV - AVIGNON (Vaucluse)
Mise à jour: 23/02/2018 07:00
Partiellement nuageux
Partiellement nuageux
 Vent N
Vent: N 24 km/h
Température: 1°C
Température au Vent: -4°C
Point de Rosée: -4°C
Humidité: 70%
Barometre: 1005 hPa
Nuage: Partiellement nuageux
Visibilité: 7 km
2018/02/23 06:00 LFMV 230600Z AUTO 36013KT 7000 NSC 01/M04 Q1005 TEMPO 35015G25KT
LFOA - AVORD (Cher)
Mise à jour: 23/02/2018 07:00
Couvert
Couvert
 Vent NE
Vent: NE 20 km/h
Température: -1°C
Température au Vent: -7°C
Point de Rosée: -5°C
Humidité: 75%
Barometre: 1012 hPa
Nuage: Couvert
Visibilité: 10 km
2018/02/23 06:00 LFOA 230600Z AUTO 04011KT 9999 OVC039 M01/M05 Q1012 NOSIG
 
LFSB - BALE - MULHOUSE (Haut-Rhin)
Mise à jour: 23/02/2018 07:00
Couvert
Couvert
 Vent E
Vent: E 19 km/h
Température: 0°C
Température au Vent: -5°C
Point de Rosée: -6°C
Humidité: 64%
Barometre: 1012 hPa
Nuage: Couvert
Visibilité: 10 km
2018/02/23 06:00 LFSB 230600Z 10010KT 9999 OVC028 M00/M06 Q1012 NOSIG
LFKB - BASTIA (Haute-Corse)
Mise à jour: 23/02/2018 07:00
Pluie, Orageux
Pluie, Orageux
 Vent W
Vent: W 7 km/h
Température: 6°C
Température au Vent: 4°C
Point de Rosée: 5°C
Humidité: 93%
Barometre: 999 hPa
Nuage: Orageux
Visibilité: 10 km
2018/02/23 06:00 LFKB 230600Z AUTO 28004KT 9999 RA BKN040/// BKN049/// OVC062/// ///TCU 06/05 Q0999 BECMG 34010KT NSW BKN025
 
LFOB - BEAUVAIS (Oise)
Mise à jour: 23/02/2018 07:00
Clair
Clair
 Vent NNE
Vent: NNE 22 km/h
Température: -3°C
Température au Vent: -9°C
Point de Rosée: -5°C
Humidité: 86%
Barometre: 1018 hPa
Visibilité: Supérieure à  10 km
2018/02/23 06:00 LFOB 230600Z AUTO 03012KT CAVOK M03/M05 Q1018 TEMPO 4000 BR
LFBE - BERGERAC (Dordogne)
Mise à jour: 23/02/2018 07:00
Couvert
Couvert
 Vent W
Vent: W 7 km/h
Température: 0°C
Température au Vent: -3°C
Point de Rosée: -2°C
Humidité: 87%
Barometre: 1010 hPa
Nuage: Couvert
Visibilité: 9 km
2018/02/23 06:00 LFBE 230600Z AUTO 26004KT 9000 OVC043 00/M02 Q1010 NOSIG
 
LFMU - BEZIERS (Hérault)
Mise à jour: 23/02/2018 07:00
Partiellement nuageux
Partiellement nuageux
 Vent WNW
Vent: WNW 4 km/h
Température: -3°C
Point de Rosée: -6°C
Humidité: 80%
Barometre: 1008 hPa
Nuage: Partiellement nuageux
Visibilité: 8 km
2018/02/23 06:00 LFMU 230600Z AUTO 29002KT 8000 NSC M03/M06 Q1008 NOSIG
LFBZ - BIARRITZ (Pyrénées-Atlantiques)
Mise à jour: 23/02/2018 07:00
Nuageux
Nuageux
 Vent S
Vent: S 4 km/h
Température: -1°C
Point de Rosée: -3°C
Humidité: 86%
Barometre: 1011 hPa
Nuage: Nuageux
Visibilité: 7 km
2018/02/23 06:00 LFBZ 230600Z AUTO 18002KT 7000 BKN032 M01/M03 Q1011 NOSIG
 
LFBD - BORDEAUX (Gironde)
Mise à jour: 23/02/2018 07:00
Clair
Clair
 Vent N
Vent: N 9 km/h
Température: -2°C
Température au Vent: -6°C
Point de Rosée: -4°C
Humidité: 86%
Barometre: 1011 hPa
Visibilité: Supérieure à  10 km
2018/02/23 06:00 LFBD 230600Z AUTO 36005KT CAVOK M02/M04 Q1011 NOSIG
LFSL - BRIVE (Correze)
Mise à jour: 23/02/2018 07:00
Couvert
Couvert
 Vent N
Vent: N 11 km/h
Température: 0°C
Température au Vent: -4°C
Point de Rosée: -6°C
Humidité: 64%
Barometre: 1008 hPa
Nuage: Couvert
Visibilité: 10 km
2018/02/23 06:00 LFSL 230600Z AUTO 36006KT 9999 OVC041 00/M06 Q1008 NOSIG
 
LFRK - CAEN (Calvados)
Mise à jour: 23/02/2018 07:00
Clair
Clair
 Vent ENE
Vent: ENE 9 km/h
Température: -1°C
Température au Vent: -4°C
Point de Rosée: -5°C
Humidité: 75%
Barometre: 1018 hPa
Visibilité: Supérieure à  10 km
2018/02/23 06:00 LFRK 230600Z AUTO 07005KT CAVOK M01/M05 Q1018 TEMPO 3000 BR
LFKC - CALVI (Haute-Corse)
Mise à jour: 23/02/2018 07:00
Légère pluie, Nuageux
Légère pluie, Nuageux
 Vent S
Vent: S 13 km/h
Température: 6°C
Température au Vent: 3°C
Point de Rosée: 5°C
Humidité: 93%
Barometre: 1000 hPa
Nuage: Nuageux
Visibilité: 10 km
2018/02/23 06:00 LFKC 230600Z AUTO 17007KT 9999 -RA FEW015 BKN021 BKN040 06/05 Q1000 TEMPO RA BKN010
 
LFMD - CANNES (Alpes-Maritimes)
Mise à jour: 23/02/2018 07:00
Couvert
Couvert
 Vent N
Vent: N 7 km/h
Température: 5°C
Température au Vent: 3°C
Point de Rosée: 0°C
Humidité: 70%
Barometre: 1003 hPa
Nuage: Couvert
Visibilité: 10 km
2018/02/23 06:00 LFMD 230600Z AUTO 35004KT 320V050 9999 OVC068 05/00 Q1003 TEMPO SHRA
LFMK - CARCASSONNE (Aude)
Mise à jour: 23/02/2018 07:00
Partiellement nuageux
Partiellement nuageux
 Vent W
Vent: W 15 km/h
Température: 1°C
Température au Vent: -3°C
Point de Rosée: -3°C
Humidité: 75%
Barometre: 1009 hPa
Nuage: Partiellement nuageux
Visibilité: 9 km
2018/02/23 06:00 LFMK 230600Z AUTO 28008KT 9000 NSC 01/M03 Q1009 NOSIG
 
LFBC - CAZAUX (Gironde)
Mise à jour: 23/02/2018 07:00
Partiellement nuageux
Partiellement nuageux
 Vent N
Vent: N 13 km/h
Température: -1°C
Température au Vent: -6°C
Point de Rosée: -3°C
Humidité: 86%
Barometre: 1011 hPa
Nuage: Partiellement nuageux
Visibilité: 9 km
2018/02/23 06:00 LFBC 230600Z AUTO 36007KT 9000 NSC M01/M03 Q1011 TEMPO 4000 BR
LFLB - CHAMBERY (Savoie)
Mise à jour: 23/02/2018 07:00
Nuageux
Nuageux
 Vent N
Vent: N 22 km/h
Température: 1°C
Température au Vent: -4°C
Point de Rosée: -4°C
Humidité: 70%
Barometre: 1009 hPa
Nuage: Nuageux
Visibilité: 7 km
2018/02/23 06:00 LFLB 230600Z AUTO 36012KT 7000 BKN035 BKN041 BKN180 01/M04 Q1009 BECMG 36015G25KT
 
LFOC - CHATEAUDUN (Eure-et-Loir)
Mise à jour: 23/02/2018 07:00
Clair
Clair
 Vent NNE
Vent: NNE 19 km/h
Température: -2°C
Température au Vent: -8°C
Point de Rosée: -6°C
Humidité: 74%
Barometre: 1015 hPa
Visibilité: Supérieure à  10 km
2018/02/23 06:00 LFOC 230600Z AUTO 03010KT CAVOK M02/M06 Q1015
LFLX - CHATEAUROUX (Indre)
Mise à jour: 23/02/2018 07:00
Couvert
Couvert
 Vent NNE
Vent: NNE 20 km/h
Température: -2°C
Température au Vent: -8°C
Point de Rosée: -5°C
Humidité: 80%
Barometre: 1012 hPa
Nuage: Couvert
Visibilité: 10 km
2018/02/23 06:00 LFLX 230600Z AUTO 03011KT 9999 OVC041 M02/M05 Q1012 NOSIG
 
LFRC - CHERBOURG (Manche)
Mise à jour: 23/02/2018 07:00
Nuageux
Nuageux
 Vent E
Vent: E 19 km/h
Température: 2°C
Température au Vent: -2°C
Point de Rosée: -3°C
Humidité: 70%
Barometre: 1018 hPa
Nuage: Nuageux
Visibilité: 10 km
2018/02/23 06:00 LFRC 230600Z AUTO 08010KT 9999 BKN027 02/M03 Q1018 NOSIG
LFLC - CLERMONT (Puy-De-Dôme)
Mise à jour: 23/02/2018 07:00
Couvert
Couvert
 Vent N
Vent: N 7 km/h
Température: -1°C
Température au Vent: -4°C
Point de Rosée: -5°C
Humidité: 75%
Barometre: 1009 hPa
Nuage: Couvert
Visibilité: 10 km
2018/02/23 06:00 LFLC 230600Z AUTO 35004KT 330V030 9999 OVC029 M01/M05 Q1009 NOSIG
 
LFBG - COGNAC (Charente)
Mise à jour: 23/02/2018 07:00
Clair
Clair
 Vent N
Vent: N 15 km/h
Température: -1°C
Température au Vent: -6°C
Point de Rosée: -4°C
Humidité: 80%
Barometre: 1012 hPa
Visibilité: Supérieure à  10 km
2018/02/23 06:00 LFBG 230600Z AUTO 36008KT CAVOK M01/M04 Q1012
LFRG - DEAUVILLE (Calvados)
Mise à jour: 23/02/2018 07:00
Partiellement nuageux
Partiellement nuageux
 Vent E
Vent: E 11 km/h
Température: -2°C
Température au Vent: -6°C
Point de Rosée: -5°C
Humidité: 80%
Barometre: 1018 hPa
Nuage: Partiellement nuageux
Visibilité: 9 km
2018/02/23 06:00 LFRG 230600Z AUTO 09006KT 9000 NSC M02/M05 Q1018 TEMPO 3000 BR
 
LFSD - DIJON (Côte d-Or)
Mise à jour: 23/02/2018 07:00

 Vent NNE
Vent: NNE 19 km/h
Température: 0°C
Température au Vent: -5°C
Point de Rosée: -6°C
Humidité: 64%
Barometre: 1011 hPa
Visibilité: 10 km
2018/02/23 06:00 LFSD 230600Z AUTO 02010KT 9999 ////// M00/M06 Q1011
LFRD - DINARD (Ille-et-Vilaine)
Mise à jour: 23/02/2018 07:00
Partiellement nuageux
Partiellement nuageux
 Vent E
Vent: E 9 km/h
Température: -2°C
Température au Vent: -6°C
Point de Rosée: -4°C
Humidité: 86%
Barometre: 1017 hPa
Nuage: Partiellement nuageux
Visibilité: 7 km
2018/02/23 06:00 LFRD 230600Z AUTO 09005KT 7000 NSC M02/M04 Q1017 TEMPO 3000 BR
 
LFGJ - DOLE (Jura)
Mise à jour: 23/02/2018 07:00
Couvert
Couvert
 Vent NNE
Vent: NNE 28 km/h
Température: 0°C
Température au Vent: -6°C
Point de Rosée: -5°C
Humidité: 69%
Barometre: 1010 hPa
Nuage: Couvert
Visibilité: 10 km
2018/02/23 06:00 LFGJ 230600Z AUTO 03015KT 9999 OVC037 00/M05 Q1010 BECMG 04015G25KT
FMCZ - DZAOUDZI-PAMANDZI (Mayotte)
Mise à jour: 23/02/2018 06:41
Nuageux
Nuageux
 Vent variable
Vent: variable 6 km/h
Température: 31°C
Humidex: 38°C
Point de Rosée: 25°C
Humidité: 70%
Barometre: 1009 hPa
Nuage: Nuageux
Visibilité: 10 km
2018/02/23 05:41 FMCZ 230541Z VRB03KT 9999 FEW020 SCT093 BKN300 31/25 Q1009 NOSIG
 
LFOE - EVREUX (Eure)
Mise à jour: 23/02/2018 07:00
Partiellement nuageux
Partiellement nuageux
 Vent NE
Vent: NE 19 km/h
Température: -3°C
Température au Vent: -9°C
Point de Rosée: -5°C
Humidité: 86%
Barometre: 1017 hPa
Nuage: Partiellement nuageux
Visibilité: 9 km
2018/02/23 06:00 LFOE 230600Z AUTO 05010KT 9000 NSC M03/M05 Q1017
LFKF - FIGARI (Corse-du-Sud)
Mise à jour: 23/02/2018 07:00
Couvert
Couvert
 Vent variable
Vent: variable 4 km/h
Température: 3°C
Point de Rosée: 2°C
Humidité: 93%
Barometre: 1000 hPa
Nuage: Couvert
Visibilité: 10 km
2018/02/23 06:00 LFKF 230600Z AUTO VRB02KT 9999 BKN036 OVC048 03/02 Q1000 NOSIG
 
LFLS - GRENOBLE (Isère)
Mise à jour: 23/02/2018 07:00
Couvert
Couvert
 Vent N
Vent: N 13 km/h
Température: -1°C
Température au Vent: -6°C
Point de Rosée: -5°C
Humidité: 75%
Barometre: 1008 hPa
Nuage: Couvert
Visibilité: 6 km
2018/02/23 06:00 LFLS 230600Z AUTO 35007KT 340V040 6000 OVC030 M01/M05 Q1008 TEMPO BKN008
LFTH - HYERES (Var)
Mise à jour: 23/02/2018 07:00
Clair
Clair
 Vent NW
Vent: NW 7 km/h
Température: 4°C
Température au Vent: 2°C
Point de Rosée: -1°C
Humidité: 70%
Barometre: 1003 hPa
Visibilité: Supérieure à  10 km
2018/02/23 06:00 LFTH 230600Z AUTO 31004KT CAVOK 04/M01 Q1003 NOSIG
 
LFMI - ISTRES Bouches-du-Rhône)
Mise à jour: 23/02/2018 07:00
Partiellement nuageux
Partiellement nuageux
 Vent NNW
Vent: NNW 20 km/h
Température: 1°C
Température au Vent: -4°C
Point de Rosée: -3°C
Humidité: 75%
Barometre: 1005 hPa
Nuage: Partiellement nuageux
Visibilité: 8 km
2018/02/23 06:00 LFMI 230600Z AUTO 34011KT 8000 NSC 01/M03 Q1005 NOSIG
LFRI - LA ROCHE SUR YON (Vendée)
Mise à jour: 23/02/2018 07:00
Clair
Clair
 Vent NNE
Vent: NNE 13 km/h
Température: -3°C
Température au Vent: -7°C
Point de Rosée: -5°C
Humidité: 86%
Barometre: 1014 hPa
Visibilité: Supérieure à  10 km
2018/02/23 06:00 LFRI 230600Z AUTO 03007KT CAVOK M03/M05 Q1014 NOSIG
 
LFBH - LA ROCHELLE (Charente-Maritime)
Mise à jour: 23/02/2018 07:00
Clair
Clair
 Vent NNE
Vent: NNE 15 km/h
Température: -2°C
Température au Vent: -7°C
Point de Rosée: -4°C
Humidité: 86%
Barometre: 1013 hPa
Visibilité: Supérieure à  10 km
2018/02/23 06:00 LFBH 230600Z AUTO 03008KT CAVOK M02/M04 Q1013 NOSIG
LFRJ - LANDIVISIAU (Finistère)
Mise à jour: 23/02/2018 07:00
Partiellement nuageux
Partiellement nuageux
 Vent E
Vent: E 9 km/h
Température: -2°C
Température au Vent: -6°C
Point de Rosée: -6°C
Humidité: 74%
Barometre: 1016 hPa
Nuage: Partiellement nuageux
Visibilité: 9 km
2018/02/23 06:00 LFRJ 230600Z AUTO 08005KT 9000 NSC M02/M06 Q1016 NOSIG
 
LFOV - LAVAL (Mayenne)
Mise à jour: 23/02/2018 07:00
Partiellement nuageux
Partiellement nuageux
 Vent N
Vent: N 13 km/h
Température: -3°C
Température au Vent: -7°C
Point de Rosée: -5°C
Humidité: 86%
Barometre: 1016 hPa
Nuage: Partiellement nuageux
Visibilité: 8 km
2018/02/23 06:00 LFOV 230600Z AUTO 01007KT 8000 NSC M03/M05 Q1016
LFOH - LE HAVRE (Seine-Maritime)
Mise à jour: 23/02/2018 07:00
Partiellement nuageux
Partiellement nuageux
 Vent ENE
Vent: ENE 15 km/h
Température: -2°C
Température au Vent: -7°C
Point de Rosée: -5°C
Humidité: 80%
Barometre: 1018 hPa
Nuage: Partiellement nuageux
Visibilité: 8 km
2018/02/23 06:00 LFOH 230600Z AUTO 06008KT 8000 NSC M02/M05 Q1018 TEMPO 4000 BR
 
TFFF - LE LAMENTIN (Martinique)
Mise à jour: 23/02/2018 07:00
Orageux
Orageux
 Vent E
Vent: E 19 km/h
Température: 23°C
Point de Rosée: 19°C
Humidité: 78%
Barometre: 1016 hPa
Nuage: Orageux
Visibilité: 10 km
2018/02/23 06:00 TFFF 230600Z AUTO 08010KT 9999 BKN033/// BKN039/// OVC047/// ///TCU 23/19 Q1016 TEMPO 09015G25KT 4000 SHRA BECMG SCT015 BKN020
LFAT - LE TOUQUET (Pas-de-Calais)
Mise à jour: 23/02/2018 07:00
Clair
Clair
 Vent E
Vent: E 22 km/h
Température: -2°C
Température au Vent: -8°C
Point de Rosée: -5°C
Humidité: 80%
Barometre: 1020 hPa
Visibilité: Supérieure à  10 km
2018/02/23 06:00 LFAT 230600Z AUTO 09012KT CAVOK M02/M05 Q1020 TEMPO 4000 BR
 
LFQQ - LILLE (Nord)
Mise à jour: 23/02/2018 07:00
Clair
Clair
 Vent NE
Vent: NE 19 km/h
Température: -2°C
Température au Vent: -8°C
Point de Rosée: -7°C
Humidité: 69%
Barometre: 1020 hPa
Visibilité: Supérieure à  10 km
2018/02/23 06:00 LFQQ 230600Z AUTO 05010KT CAVOK M02/M07 Q1020 TEMPO 4000 BR
LFBL - LIMOGES (Haute-Vienne)
Mise à jour: 23/02/2018 07:00
Couvert
Couvert
 Vent NE
Vent: NE 17 km/h
Température: -1°C
Température au Vent: -6°C
Point de Rosée: -6°C
Humidité: 69%
Barometre: 1009 hPa
Nuage: Couvert
Visibilité: 10 km
2018/02/23 06:00 LFBL 230600Z AUTO 05009KT 9999 OVC027 M01/M06 Q1009 NOSIG
 
LFRH - LANN BIHOUE (Morbihan)
Mise à jour: 23/02/2018 07:00
Partiellement nuageux
Partiellement nuageux
 Vent ENE
Vent: ENE 15 km/h
Température: -2°C
Température au Vent: -7°C
Point de Rosée: -5°C
Humidité: 80%
Barometre: 1016 hPa
Nuage: Partiellement nuageux
Visibilité: 8 km
2018/02/23 06:00 LFRH 230600Z AUTO 06008KT 8000 NSC M02/M05 Q1016 TEMPO 4000 BR
LFSX - LUXEUIL (Haute-Saône)
Mise à jour: 23/02/2018 07:00
Couvert
Couvert
 Vent NNE
Vent: NNE 7 km/h
Température: 0°C
Température au Vent: -3°C
Point de Rosée: -6°C
Humidité: 64%
Barometre: 1011 hPa
Nuage: Couvert
Visibilité: 10 km
2018/02/23 06:00 LFSX 230600Z AUTO 02004KT 9999 OVC036 00/M06 Q1011
 
LFLY - LYON Bron (Rhône)
Mise à jour: 23/02/2018 07:00
Partiellement nuageux
Partiellement nuageux
 Vent variable
Vent: variable 6 km/h
Température: -2°C
Point de Rosée: -6°C
Humidité: 74%
Barometre: 1009 hPa
Nuage: Partiellement nuageux
Visibilité: 8 km
2018/02/23 06:00 LFLY 230600Z AUTO VRB03KT 8000 NSC M02/M06 Q1009 NOSIG
LFLL - LYON Saint-Exupery (Rhône)
Mise à jour: 23/02/2018 07:00
Quelques nuages
Quelques nuages
 Vent WNW
Vent: WNW 6 km/h
Température: -3°C
Point de Rosée: -6°C
Humidité: 80%
Barometre: 1009 hPa
Nuage: Quelques nuages
Visibilité: 6 km
2018/02/23 06:00 LFLL 230600Z 29003KT 6000 FEW040 M03/M06 Q1009 NOSIG
 
LFML - MARSEILLE PROVENCE (Bouches-du-Rhône)
Mise à jour: 23/02/2018 07:00
Partiellement nuageux
Partiellement nuageux
 Vent NNW
Vent: NNW 9 km/h
Température: 0°C
Température au Vent: -3°C
Point de Rosée: -4°C
Humidité: 75%
Barometre: 1005 hPa
Nuage: Partiellement nuageux
Visibilité: 7 km
2018/02/23 06:00 LFML 230600Z AUTO 34005KT 7000 NSC 00/M04 Q1005 NOSIG
LFJL - METZ-NANCY LORRAINE (Moselle)
Mise à jour: 23/02/2018 07:00
Clair
Clair
 Vent NE
Vent: NE 24 km/h
Température: -4°C
Température au Vent: -11°C
Point de Rosée: -9°C
Humidité: 69%
Barometre: 1015 hPa
Visibilité: Supérieure à  10 km
2018/02/23 06:00 LFJL 230600Z AUTO 04013KT CAVOK M04/M09 Q1015 NOSIG
 
LFBM - MONT DE MARSAN (Landes)
Mise à jour: 23/02/2018 07:00
Partiellement nuageux
Partiellement nuageux
 Vent WSW
Vent: WSW 4 km/h
Température: -4°C
Point de Rosée: -4°C
Humidité: 100%
Barometre: 1011 hPa
Nuage: Partiellement nuageux
Visibilité: 6 km
2018/02/23 06:00 LFBM 230600Z AUTO 25002KT 6000 NSC M04/M04 Q1011 BECMG 3000 BR
LFMT - MONTPELLIER (Hérault)
Mise à jour: 23/02/2018 07:00
Clair
Clair
 Vent NW
Vent: NW 9 km/h
Température: 0°C
Température au Vent: -3°C
Point de Rosée: -6°C
Humidité: 64%
Barometre: 1007 hPa
Visibilité: Supérieure à  10 km
2018/02/23 06:00 LFMT 230600Z AUTO 31005KT 290V350 CAVOK M00/M06 Q1007 NOSIG
 
LFRS - NANTES (Loire-Atlantique)
Mise à jour: 23/02/2018 07:00
Clair
Clair
 Vent NNE
Vent: NNE 9 km/h
Température: -2°C
Température au Vent: -6°C
Point de Rosée: -4°C
Humidité: 86%
Barometre: 1015 hPa
Visibilité: Supérieure à  10 km
2018/02/23 06:00 LFRS 230600Z AUTO 03005KT 350V060 CAVOK M02/M04 Q1015 NOSIG
LFMN - NICE Alpes-Maritimes)
Mise à jour: 23/02/2018 07:00
Nuageux
Nuageux
 Vent NNW
Vent: NNW 13 km/h
Température: 6°C
Température au Vent: 3°C
Point de Rosée: -2°C
Humidité: 57%
Barometre: 1003 hPa
Nuage: Nuageux
Visibilité: 10 km
2018/02/23 06:00 LFMN 230600Z 33007KT 310V010 9999 BKN063 06/M02 Q1003 NOSIG
 
LFMO - ORANGE (Vaucluse)
Mise à jour: 23/02/2018 07:00
Partiellement nuageux
Partiellement nuageux
 Vent N
Vent: N 33 km/h
Température: 1°C
Température au Vent: -6°C
Point de Rosée: -5°C
Humidité: 65%
Barometre: 1006 hPa
Nuage: Partiellement nuageux
Visibilité: 7 km
2018/02/23 06:00 LFMO 230600Z AUTO 01018KT 7000 NSC 01/M05 Q1006 BECMG 35020G30KT
LFPG - PARIS CH. DE-GAULLE (Val d-Oise)
Mise à jour: 23/02/2018 07:00
Clair
Clair
 Vent NE
Vent: NE 24 km/h
Température: -3°C
Température au Vent: -9°C
Point de Rosée: -6°C
Humidité: 80%
Barometre: 1017 hPa
Visibilité: Supérieure à  10 km
2018/02/23 06:00 LFPG 230600Z 04013KT 010V080 CAVOK M03/M06 Q1017 NOSIG
 
LFPB - PARIS LE BOURGET (Seine-Saint-Denis)
Mise à jour: 23/02/2018 07:00
Clair
Clair
 Vent NNE
Vent: NNE 15 km/h
Température: -2°C
Température au Vent: -7°C
Point de Rosée: -6°C
Humidité: 74%
Barometre: 1017 hPa
Visibilité: Supérieure à  10 km
2018/02/23 06:00 LFPB 230600Z AUTO 02008KT 350V050 CAVOK M02/M06 Q1017 NOSIG
LFPO - PARIS ORLY (Val-de-Marne)
Mise à jour: 23/02/2018 07:00
Clair
Clair
 Vent NE
Vent: NE 20 km/h
Température: -2°C
Température au Vent: -8°C
Point de Rosée: -7°C
Humidité: 69%
Barometre: 1016 hPa
Visibilité: Supérieure à  10 km
2018/02/23 06:00 LFPO 230600Z 04011KT CAVOK M02/M07 Q1016 NOSIG
 
LFBP - PAU (Pyrénées-Atlantiques)
Mise à jour: 23/02/2018 07:00
Nuageux
Nuageux
 Vent SSW
Vent: SSW 4 km/h
Température: -1°C
Point de Rosée: -2°C
Humidité: 93%
Barometre: 1010 hPa
Nuage: Nuageux
Visibilité: 6 km
2018/02/23 06:00 LFBP 230600Z AUTO 21002KT 6000 BKN046 M01/M02 Q1010 NOSIG
LFMP - PERPIGNAN (Pyrénées-Orientales)
Mise à jour: 23/02/2018 07:00
Clair
Clair
 Vent NNW
Vent: NNW 7 km/h
Température: 3°C
Température au Vent: 1°C
Point de Rosée: -5°C
Humidité: 56%
Barometre: 1007 hPa
Visibilité: Supérieure à  10 km
2018/02/23 06:00 LFMP 230600Z AUTO 34004KT 270V070 CAVOK 03/M05 Q1007 NOSIG
 
TFFR - Point à Pitre (Guadeloupe)
Mise à jour: 23/02/2018 07:00
Partiellement nuageux
Partiellement nuageux
 Vent E
Vent: E 9 km/h
Température: 23°C
Point de Rosée: 17°C
Humidité: 69%
Barometre: 1018 hPa
Nuage: Partiellement nuageux
Visibilité: 10 km
2018/02/23 06:00 TFFR 230600Z AUTO 08005KT 9999 SCT040 23/17 Q1018 TEMPO 07015G25KT 4000 SHRA BKN018TCU
LFBI - POITIERS (Vienne)
Mise à jour: 23/02/2018 07:00
Clair
Clair
 Vent NNE
Vent: NNE 19 km/h
Température: -2°C
Température au Vent: -8°C
Point de Rosée: -5°C
Humidité: 80%
Barometre: 1013 hPa
Visibilité: Supérieure à  10 km
2018/02/23 06:00 LFBI 230600Z AUTO 02010KT CAVOK M02/M05 Q1013 NOSIG
 
LFRQ - QUIMPER (Finistère)
Mise à jour: 23/02/2018 07:00
Partiellement nuageux
Partiellement nuageux
 Vent NE
Vent: NE 7 km/h
Température: -2°C
Température au Vent: -6°C
Point de Rosée: -5°C
Humidité: 80%
Barometre: 1016 hPa
Nuage: Partiellement nuageux
Visibilité: 7 km
2018/02/23 06:00 LFRQ 230600Z AUTO 05004KT 7000 NSC M02/M05 Q1016 NOSIG
LFRN - RENNES (Ille-et-Vilaine)
Mise à jour: 23/02/2018 07:00
Partiellement nuageux
Partiellement nuageux
 Vent NNE
Vent: NNE 11 km/h
Température: -3°C
Température au Vent: -7°C
Point de Rosée: -5°C
Humidité: 86%
Barometre: 1016 hPa
Nuage: Partiellement nuageux
Visibilité: 8 km
2018/02/23 06:00 LFRN 230600Z AUTO 03006KT 8000 NSC M03/M05 Q1016 TEMPO 3000 BR
 
LFCR - RODEZ (Aveyron)
Mise à jour: 23/02/2018 07:00
Partiellement nuageux
Partiellement nuageux
 Vent NW
Vent: NW 6 km/h
Température: -5°C
Point de Rosée: -7°C
Humidité: 86%
Barometre: 1006 hPa
Nuage: Partiellement nuageux
Visibilité: 9 km
2018/02/23 06:00 LFCR 230600Z AUTO 32003KT 9000 NSC M05/M07 Q1006 NOSIG
LFOP - ROUEN (Seine-Maritime)
Mise à jour: 23/02/2018 07:00
Partiellement nuageux
Partiellement nuageux
 Vent ENE
Vent: ENE 20 km/h
Température: -3°C
Température au Vent: -9°C
Point de Rosée: -5°C
Humidité: 86%
Barometre: 1017 hPa
Nuage: Partiellement nuageux
Visibilité: 9 km
2018/02/23 06:00 LFOP 230600Z AUTO 06011KT 030V090 9000 NSC M03/M05 Q1017 TEMPO 4000 BR
 
LFRT - SAINT-BRIEUC (Côtes d-Armor)
Mise à jour: 22/02/2018 23:00
Pas Actualisé
Quelques nuages
Quelques nuages
 Vent E
Vent: E 15 km/h
Température: 2°C
Température au Vent: -2°C
Point de Rosée: -1°C
Humidité: 81%
Barometre: 1018 hPa
Nuage: Quelques nuages
Visibilité: 7 km
2018/02/22 22:00 LFRT 222200Z AUTO 09008KT 070V130 7000 FEW018 02/M01 Q1018
FMEE - Saint-Denis (Réunion)
Mise à jour: 23/02/2018 07:00
Quelques nuages
Quelques nuages
 Vent NE
Vent: NE 9 km/h
Température: 31°C
Humidex: 35°C
Point de Rosée: 22°C
Humidité: 59%
Barometre: 1010 hPa
Nuage: Quelques nuages
Visibilité: 10 km
2018/02/23 06:00 FMEE 230600Z 04005KT 9999 FEW033 31/22 Q1010 NOSIG
 
LFMH - SAINT-ETIENNE (Loire)
Mise à jour: 23/02/2018 07:00
Couvert
Couvert
 Vent calm
Vent: Calme
Température: -4°C
Point de Rosée: -6°C
Humidité: 86%
Barometre: 1009 hPa
Nuage: Couvert
Visibilité: 6 km
2018/02/23 06:00 LFMH 230600Z AUTO 00000KT 6000 SCT024 OVC032 M04/M06 Q1009 TEMPO OVC011
LFRZ - SAINT-NAZAIRE (Loire-Atlantique)
Mise à jour: 23/02/2018 07:00
Partiellement nuageux
Partiellement nuageux
 Vent N
Vent: N 9 km/h
Température: -2°C
Température au Vent: -6°C
Point de Rosée: -5°C
Humidité: 80%
Barometre: 1015 hPa
Nuage: Partiellement nuageux
Visibilité: 8 km
2018/02/23 06:00 LFRZ 230600Z AUTO 01005KT 8000 NSC M02/M05 Q1015 NOSIG
 
LFVP - SAINT-PIERRE (St Pierre et Miquelon)
Mise à jour: 22/02/2018 23:00
Pas Actualisé
Nuageux
Nuageux
 Vent NW
Vent: NW 37 km/h, Rafale: 63 km/h
Température: -6°C
Température au Vent: -15°C
Point de Rosée: -11°C
Humidité: 68%
Barometre: 1026 hPa
Nuage: Nuageux
Visibilité: 10 km
2018/02/22 22:00 LFVP 222200Z 31020G34KT 280V340 9999 FEW026 BKN180 M06/M11 Q1026
LFLN - SAINT-YAN (Saône-et-Loire)
Mise à jour: 23/02/2018 07:00
Couvert
Couvert
 Vent NNE
Vent: NNE 9 km/h
Température: 0°C
Température au Vent: -3°C
Point de Rosée: -5°C
Humidité: 69%
Barometre: 1010 hPa
Nuage: Couvert
Visibilité: 10 km
2018/02/23 06:00 LFLN 230600Z AUTO 02005KT 330V030 9999 OVC035 00/M05 Q1010 NOSIG
 
LFMY - SALON (Bouches-du-Rhône)
Mise à jour: 23/02/2018 07:00
Partiellement nuageux
Partiellement nuageux
 Vent N
Vent: N 7 km/h
Température: 0°C
Température au Vent: -3°C
Point de Rosée: -4°C
Humidité: 75%
Barometre: 1005 hPa
Nuage: Partiellement nuageux
Visibilité: 8 km
2018/02/23 06:00 LFMY 230600Z AUTO 36004KT 320V050 8000 NSC M00/M04 Q1005 NOSIG
SOCA - MATURY (Guyane)
Mise à jour: 23/02/2018 07:00
Nuageux
Nuageux
 Vent WSW
Vent: WSW 4 km/h
Température: 22°C
Point de Rosée: 22°C
Humidité: 100%
Barometre: 1011 hPa
Nuage: Nuageux
Visibilité: 10 km
2018/02/23 06:00 SOCA 230600Z AUTO 25002KT 9999 FEW023 SCT041 BKN047 22/22 Q1011 TEMPO 2000 SHRA SCT012TCU
 
LFKS - SOLENZARA (Corse-du-Sud)
Mise à jour: 23/02/2018 07:00
Clair
Clair
 Vent W
Vent: W 9 km/h
Température: 4°C
Température au Vent: 2°C
Point de Rosée: 4°C
Humidité: 100%
Barometre: 999 hPa
Visibilité: Supérieure à  10 km
2018/02/23 06:00 LFKS 230600Z AUTO 26005KT 230V300 CAVOK 04/04 Q0999
LFST - STRASBOURG (Bas-Rhin)
Mise à jour: 23/02/2018 07:00
Couvert
Couvert
 Vent NE
Vent: NE 28 km/h
Température: -1°C
Température au Vent: -8°C
Point de Rosée: -8°C
Humidité: 59%
Barometre: 1015 hPa
Nuage: Couvert
Visibilité: 10 km
2018/02/23 06:00 LFST 230600Z AUTO 04015KT 9999 OVC038 M01/M08 Q1015 NOSIG
 
LFBT - TARBES - LOURDES (Hautes-Pyrénées)
Mise à jour: 23/02/2018 07:00
Quelques nuages
Quelques nuages
 Vent SSE
Vent: SSE 6 km/h
Température: -2°C
Point de Rosée: -4°C
Humidité: 86%
Barometre: 1009 hPa
Nuage: Quelques nuages
Visibilité: 8 km
2018/02/23 06:00 LFBT 230600Z AUTO 15003KT 8000 FEW060 M02/M04 Q1009 TEMPO 4000 BR
LFBO - TOULOUSE BLAGNAC (Haute-Garonne)
Mise à jour: 23/02/2018 07:00
Clair
Clair
 Vent variable
Vent: variable 6 km/h
Température: 2°C
Point de Rosée: -4°C
Humidité: 65%
Barometre: 1009 hPa
Visibilité: Supérieure à  10 km
2018/02/23 06:00 LFBO 230600Z AUTO VRB03KT CAVOK 02/M04 Q1009 NOSIG
 
LFOT - TOURS (Indre-et-Loire)
Mise à jour: 23/02/2018 07:00
Clair
Clair
 Vent NE
Vent: NE 17 km/h
Température: -1°C
Température au Vent: -6°C
Point de Rosée: -6°C
Humidité: 69%
Barometre: 1014 hPa
Visibilité: Supérieure à  10 km
2018/02/23 06:00 LFOT 230600Z AUTO 05009KT CAVOK M01/M06 Q1014 NOSIG
LFPN - TOUSSUS-LE-NOBLE (Yvelines)
Mise à jour: 23/02/2018 07:00
Clair
Clair
 Vent NE
Vent: NE 15 km/h
Température: -2°C
Température au Vent: -7°C
Point de Rosée: -7°C
Humidité: 69%
Barometre: 1016 hPa
Visibilité: Supérieure à  10 km
2018/02/23 06:00 LFPN 230600Z AUTO 05008KT CAVOK M02/M07 Q1016 NOSIG
 
LFQB - TROYES (Aube)
Mise à jour: 23/02/2018 07:00
Clair
Clair
 Vent NNE
Vent: NNE 15 km/h
Température: -2°C
Température au Vent: -7°C
Point de Rosée: -8°C
Humidité: 64%
Barometre: 1015 hPa
Visibilité: Supérieure à  10 km
2018/02/23 06:00 LFQB 230600Z AUTO 03008KT CAVOK M02/M08 Q1015
LFSI - SAINT-DIZIER (Haute-Marne)
Mise à jour: 23/02/2018 07:00
Clair
Clair
 Vent NE
Vent: NE 15 km/h
Température: -3°C
Température au Vent: -8°C
Point de Rosée: -8°C
Humidité: 69%
Barometre: 1015 hPa
Visibilité: Supérieure à  10 km
2018/02/23 06:00 LFSI 230600Z AUTO 05008KT CAVOK M03/M08 Q1015

Metar display script from Saratoga-Weather.org